createdAt,value
2023-09-15T00:01:38.158Z,78.10
2023-09-15T00:04:07.457Z,78.10
2023-09-15T00:06:36.163Z,78.00
2023-09-15T00:09:04.953Z,78.70
2023-09-15T00:11:41.530Z,77.80
2023-09-15T00:14:13.267Z,77.70
2023-09-15T00:16:40.957Z,77.60
2023-09-15T00:19:09.504Z,77.50
2023-09-15T00:21:36.441Z,77.40
2023-09-15T00:24:03.397Z,77.10
2023-09-15T00:26:30.779Z,77.00
2023-09-15T00:28:58.150Z,76.80
2023-09-15T00:31:25.207Z,76.80
2023-09-15T00:33:52.166Z,76.70
2023-09-15T00:36:20.279Z,76.70
2023-09-15T00:38:47.369Z,76.60
2023-09-15T00:41:14.728Z,76.60
2023-09-15T00:43:42.129Z,76.50
2023-09-15T00:46:10.078Z,76.50
2023-09-15T00:48:38.702Z,76.40
2023-09-15T00:51:08.134Z,76.30
2023-09-15T00:53:40.184Z,76.30
2023-09-15T00:56:08.878Z,76.20
2023-09-15T00:58:37.351Z,76.20
2023-09-15T01:01:07.782Z,76.20
2023-09-15T01:03:36.915Z,76.20
2023-09-15T01:06:07.479Z,76.00
2023-09-15T01:08:35.653Z,75.90
2023-09-15T01:11:05.598Z,75.90
2023-09-15T01:13:34.332Z,75.90
2023-09-15T01:16:19.912Z,75.90
2023-09-15T01:18:54.226Z,76.00
2023-09-15T01:21:30.876Z,76.00
2023-09-15T01:24:04.224Z,76.10
2023-09-15T01:26:31.037Z,76.20
2023-09-15T01:29:16.836Z,76.40
2023-09-15T01:31:44.280Z,76.40
2023-09-15T01:34:14.528Z,76.70
2023-09-15T01:36:41.738Z,76.80
2023-09-15T01:39:09.446Z,77.00
2023-09-15T01:41:37.098Z,77.00
2023-09-15T01:44:05.172Z,77.10
2023-09-15T01:46:32.276Z,77.00
2023-09-15T01:48:59.891Z,77.00
2023-09-15T01:51:27.233Z,77.00
2023-09-15T01:53:54.217Z,77.00
2023-09-15T01:56:22.459Z,76.90
2023-09-15T01:58:49.606Z,76.90
2023-09-15T02:01:16.714Z,76.80
2023-09-15T02:03:43.758Z,77.60
2023-09-15T02:06:17.834Z,76.80
2023-09-15T02:08:48.444Z,77.60
2023-09-15T02:11:15.615Z,76.80
2023-09-15T02:13:43.304Z,76.70
2023-09-15T02:16:10.670Z,77.00
2023-09-15T02:18:37.644Z,76.90
2023-09-15T02:21:05.040Z,76.90
2023-09-15T02:23:31.919Z,76.90
2023-09-15T02:26:02.447Z,77.00
2023-09-15T02:28:30.200Z,77.10
2023-09-15T02:30:57.281Z,77.20
2023-09-15T02:33:24.654Z,77.20
2023-09-15T02:35:51.529Z,77.20
2023-09-15T02:38:19.168Z,77.20
2023-09-15T02:40:46.002Z,77.10
2023-09-15T02:43:12.954Z,77.00
2023-09-15T02:45:39.910Z,76.90
2023-09-15T02:48:07.671Z,76.90
2023-09-15T02:50:35.249Z,76.90
2023-09-15T02:53:02.120Z,76.80
2023-09-15T02:55:29.040Z,76.80
2023-09-15T02:57:56.225Z,76.80
2023-09-15T03:00:23.206Z,76.90
2023-09-15T03:02:51.072Z,77.10
2023-09-15T03:05:21.341Z,77.20
2023-09-15T03:07:48.218Z,77.30
2023-09-15T03:10:16.076Z,77.30
2023-09-15T03:12:42.963Z,78.20
2023-09-15T03:15:10.068Z,77.30
2023-09-15T03:17:38.701Z,77.40
2023-09-15T03:20:17.187Z,77.30
2023-09-15T03:22:44.881Z,77.30
2023-09-15T03:25:12.238Z,77.20
2023-09-15T03:27:40.340Z,77.10
2023-09-15T03:30:08.166Z,77.10
2023-09-15T03:32:35.554Z,77.00
2023-09-15T03:35:03.322Z,76.90
2023-09-15T03:37:31.832Z,77.00
2023-09-15T03:39:58.869Z,76.80
2023-09-15T03:42:28.281Z,76.70
2023-09-15T03:44:55.771Z,76.70
2023-09-15T03:47:23.493Z,76.80
2023-09-15T03:49:50.418Z,76.80
2023-09-15T03:52:17.370Z,76.80
2023-09-15T03:54:44.306Z,76.80
2023-09-15T03:57:11.162Z,76.80
2023-09-15T03:59:38.180Z,76.90
2023-09-15T04:02:05.184Z,76.90
2023-09-15T04:04:32.262Z,76.90
2023-09-15T04:06:59.236Z,76.90
2023-09-15T04:09:26.170Z,77.00
2023-09-15T04:11:53.551Z,77.00
2023-09-15T04:14:20.431Z,77.00
2023-09-15T04:16:47.618Z,77.10
2023-09-15T04:19:14.672Z,77.10
2023-09-15T04:21:43.564Z,77.10
2023-09-15T04:24:10.426Z,77.20
2023-09-15T04:26:37.318Z,77.20
2023-09-15T04:29:04.417Z,77.20
2023-09-15T04:31:31.844Z,77.10
2023-09-15T04:33:58.865Z,77.10
2023-09-15T04:36:25.860Z,77.10
2023-09-15T04:38:53.219Z,77.00
2023-09-15T04:41:20.686Z,77.00
2023-09-15T04:43:47.578Z,77.00
2023-09-15T04:46:14.699Z,77.00
2023-09-15T04:48:41.812Z,76.90
2023-09-15T04:51:08.727Z,76.80
2023-09-15T04:53:35.584Z,76.70
2023-09-15T04:56:04.506Z,76.70
2023-09-15T04:58:32.496Z,76.60
2023-09-15T05:01:00.549Z,76.60
2023-09-15T05:03:28.867Z,76.60
2023-09-15T05:05:56.641Z,76.60
2023-09-15T05:08:24.048Z,76.60
2023-09-15T05:10:51.141Z,76.60
2023-09-15T05:13:18.855Z,76.60
2023-09-15T05:15:46.155Z,76.60
2023-09-15T05:18:13.111Z,76.50
2023-09-15T05:20:40.440Z,76.40
2023-09-15T05:23:08.557Z,76.30
2023-09-15T05:25:36.001Z,76.20
2023-09-15T05:28:03.760Z,76.10
2023-09-15T05:30:32.901Z,76.10
2023-09-15T05:33:00.957Z,75.90
2023-09-15T05:35:28.299Z,75.90
2023-09-15T05:37:56.422Z,75.70
2023-09-15T05:40:23.335Z,75.80
2023-09-15T05:42:50.368Z,75.70
2023-09-15T05:45:17.262Z,75.70
2023-09-15T05:47:45.046Z,75.70
2023-09-15T05:50:12.091Z,75.50
2023-09-15T05:52:39.010Z,75.40
2023-09-15T05:55:06.192Z,75.40
2023-09-15T05:57:33.454Z,75.40
2023-09-15T06:00:00.382Z,75.20
2023-09-15T06:02:27.301Z,75.20
2023-09-15T06:04:54.772Z,75.20
2023-09-15T06:07:22.374Z,75.20
2023-09-15T06:09:49.406Z,75.20
2023-09-15T06:12:16.283Z,75.10
2023-09-15T06:14:43.998Z,74.90
2023-09-15T06:17:10.905Z,74.60
2023-09-15T06:19:38.932Z,74.50
2023-09-15T06:22:06.703Z,74.50
2023-09-15T06:24:33.673Z,74.50
2023-09-15T06:27:00.556Z,74.40
2023-09-15T06:29:27.477Z,74.40
2023-09-15T06:31:54.416Z,74.30
2023-09-15T06:34:21.355Z,74.40
2023-09-15T06:36:48.355Z,74.50
2023-09-15T06:39:15.259Z,74.30
2023-09-15T06:41:42.195Z,74.30
2023-09-15T06:44:22.653Z,74.10
2023-09-15T06:46:49.585Z,74.00
2023-09-15T06:49:22.683Z,74.10
2023-09-15T06:51:50.530Z,74.10
2023-09-15T06:54:17.636Z,74.00
2023-09-15T06:56:44.485Z,74.10
2023-09-15T06:59:11.375Z,73.80
2023-09-15T07:01:38.276Z,73.70
2023-09-15T07:04:05.355Z,73.70
2023-09-15T07:06:32.980Z,73.80
2023-09-15T07:08:59.857Z,73.90
2023-09-15T07:11:27.483Z,74.00
2023-09-15T07:13:54.799Z,74.00
2023-09-15T07:16:21.967Z,73.90
2023-09-15T07:18:48.972Z,73.70
2023-09-15T07:21:15.800Z,73.70
2023-09-15T07:23:42.674Z,73.70
2023-09-15T07:26:09.579Z,73.60
2023-09-15T07:28:36.421Z,73.20
2023-09-15T07:31:04.425Z,72.80
2023-09-15T07:33:31.654Z,71.70
2023-09-15T07:36:02.224Z,71.10
2023-09-15T07:38:32.061Z,69.70
2023-09-15T07:41:00.762Z,69.70
2023-09-15T07:43:27.730Z,70.10
2023-09-15T07:45:54.805Z,70.20
2023-09-15T07:48:22.989Z,69.80
2023-09-15T07:50:51.845Z,69.50
2023-09-15T07:53:18.787Z,68.60
2023-09-15T07:55:46.518Z,68.10
2023-09-15T07:58:13.488Z,68.10
2023-09-15T08:00:40.406Z,67.90
2023-09-15T08:03:07.403Z,67.40
2023-09-15T08:05:35.223Z,66.70
2023-09-15T08:08:02.177Z,62.60
2023-09-15T08:10:30.525Z,60.50
2023-09-15T08:12:57.580Z,58.20
2023-09-15T08:15:24.501Z,57.40
2023-09-15T08:17:51.489Z,57.60
2023-09-15T08:20:19.191Z,57.60
2023-09-15T08:22:46.062Z,53.80
2023-09-15T08:25:13.154Z,54.80
2023-09-15T08:27:40.189Z,54.70
2023-09-15T08:30:09.886Z,54.70
2023-09-15T08:32:37.181Z,56.20
2023-09-15T08:35:05.246Z,55.70
2023-09-15T08:37:32.981Z,55.90
2023-09-15T08:40:00.000Z,56.10
2023-09-15T08:42:27.938Z,56.00
2023-09-15T08:44:55.151Z,56.70
2023-09-15T08:47:22.032Z,57.10
2023-09-15T08:49:50.167Z,55.90
2023-09-15T08:52:19.002Z,56.30
2023-09-15T08:54:46.860Z,57.10
2023-09-15T08:57:14.558Z,58.20
2023-09-15T08:59:41.579Z,59.00
2023-09-15T09:02:11.412Z,59.30
2023-09-15T09:04:38.891Z,59.70
2023-09-15T09:07:06.581Z,60.00
2023-09-15T09:09:33.836Z,60.10
2023-09-15T09:12:00.898Z,60.20
2023-09-15T09:14:27.788Z,60.30
2023-09-15T09:16:54.726Z,60.40
2023-09-15T09:19:21.808Z,60.40
2023-09-15T09:21:48.702Z,60.70
2023-09-15T09:24:15.951Z,61.20
2023-09-15T09:26:53.030Z,61.50
2023-09-15T09:29:24.284Z,61.10
2023-09-15T09:31:51.476Z,60.80
2023-09-15T09:34:30.589Z,61.00
2023-09-15T09:37:05.761Z,60.80
2023-09-15T09:39:32.746Z,61.10
2023-09-15T09:41:59.686Z,61.30
2023-09-15T09:44:26.623Z,61.40
2023-09-15T09:46:54.633Z,61.70
2023-09-15T09:49:22.653Z,61.10
2023-09-15T09:51:51.455Z,60.70
2023-09-15T09:54:18.349Z,61.00
2023-09-15T09:56:51.188Z,61.00
2023-09-15T09:59:18.174Z,60.80
2023-09-15T10:01:45.119Z,60.60
2023-09-15T10:04:12.239Z,60.60
2023-09-15T10:06:39.369Z,59.70
2023-09-15T10:09:10.836Z,59.00
2023-09-15T10:11:37.784Z,57.80
2023-09-15T10:14:05.261Z,57.50
2023-09-15T10:16:33.250Z,57.10
2023-09-15T10:19:02.221Z,57.70
2023-09-15T10:21:29.873Z,58.10
2023-09-15T10:24:09.919Z,57.80
2023-09-15T10:26:40.786Z,58.00
2023-09-15T10:29:07.725Z,57.50
2023-09-15T10:31:35.404Z,57.40
2023-09-15T10:34:02.943Z,57.60
2023-09-15T10:36:30.179Z,57.50
2023-09-15T10:38:59.607Z,57.30
2023-09-15T10:41:27.378Z,57.30
2023-09-15T10:43:54.364Z,56.60
2023-09-15T10:46:21.622Z,56.40
2023-09-15T10:48:50.362Z,56.40
2023-09-15T10:51:23.734Z,56.90
2023-09-15T10:53:51.700Z,55.90
2023-09-15T10:56:19.238Z,55.80
2023-09-15T10:58:50.088Z,55.40
2023-09-15T11:01:17.825Z,54.10
2023-09-15T11:03:45.288Z,53.70
2023-09-15T11:06:13.194Z,53.70
2023-09-15T11:08:40.419Z,53.50
2023-09-15T11:11:12.934Z,52.40
2023-09-15T11:13:40.654Z,51.80
2023-09-15T11:16:08.199Z,51.10
2023-09-15T11:18:35.807Z,51.10
2023-09-15T11:21:03.275Z,51.60
2023-09-15T11:23:30.418Z,51.70
2023-09-15T11:26:07.343Z,50.80
2023-09-15T11:28:40.426Z,50.80
2023-09-15T11:31:11.084Z,50.70
2023-09-15T11:33:41.902Z,50.70
2023-09-15T11:36:09.012Z,49.70
2023-09-15T11:38:35.894Z,45.80
2023-09-15T11:41:02.756Z,42.40
2023-09-15T11:43:29.673Z,42.00
2023-09-15T11:45:57.093Z,41.20
2023-09-15T11:48:24.704Z,41.00
2023-09-15T11:50:51.746Z,39.00
2023-09-15T11:53:28.008Z,38.50
2023-09-15T11:55:54.933Z,38.00
2023-09-15T11:58:22.335Z,36.00
2023-09-15T12:00:49.304Z,35.00
2023-09-15T12:03:16.375Z,36.30
2023-09-15T12:05:43.364Z,36.40
2023-09-15T12:08:11.425Z,37.30
2023-09-15T12:10:38.762Z,36.70
2023-09-15T12:13:05.632Z,36.60
2023-09-15T12:15:33.781Z,36.90
2023-09-15T12:18:03.225Z,37.30
2023-09-15T12:20:30.126Z,38.20
2023-09-15T12:22:57.189Z,39.60
2023-09-15T12:25:24.396Z,40.40
2023-09-15T12:27:53.002Z,40.80
2023-09-15T12:30:20.901Z,41.80
2023-09-15T12:32:48.763Z,41.40
2023-09-15T12:35:15.862Z,42.00
2023-09-15T12:37:43.346Z,42.70
2023-09-15T12:40:11.223Z,42.90
2023-09-15T12:42:38.822Z,42.10
2023-09-15T12:45:06.285Z,41.70
2023-09-15T12:47:34.330Z,40.90
2023-09-15T12:50:01.675Z,41.70
2023-09-15T12:52:28.620Z,40.30
2023-09-15T12:54:55.542Z,37.90
2023-09-15T12:57:23.990Z,38.20
2023-09-15T12:59:50.860Z,38.90
2023-09-15T13:02:19.266Z,39.50
2023-09-15T13:04:46.594Z,38.30
2023-09-15T13:07:13.537Z,38.00
2023-09-15T13:09:40.599Z,37.90
2023-09-15T13:12:08.681Z,38.10
2023-09-15T13:14:35.822Z,37.80
2023-09-15T13:17:04.578Z,37.60
2023-09-15T13:19:31.917Z,37.40
2023-09-15T13:21:59.381Z,36.70
2023-09-15T13:24:26.352Z,37.00
2023-09-15T13:26:53.696Z,38.00
2023-09-15T13:29:20.615Z,38.80
2023-09-15T13:31:48.255Z,38.40
2023-09-15T13:34:15.102Z,38.60
2023-09-15T13:36:42.147Z,38.50
2023-09-15T13:39:10.034Z,36.90
2023-09-15T13:41:36.937Z,36.90
2023-09-15T13:44:04.723Z,37.50
2023-09-15T13:46:31.818Z,37.70
2023-09-15T13:48:58.769Z,38.10
2023-09-15T13:51:40.190Z,38.00
2023-09-15T13:54:09.377Z,37.50
2023-09-15T13:56:36.228Z,37.90
2023-09-15T13:59:04.831Z,37.50
2023-09-15T14:01:32.572Z,38.10
2023-09-15T14:03:59.659Z,38.80
2023-09-15T14:06:26.559Z,39.10
2023-09-15T14:08:54.679Z,39.40
2023-09-15T14:11:21.533Z,39.80
2023-09-15T14:13:48.643Z,39.60
2023-09-15T14:16:15.506Z,39.60
2023-09-15T14:18:42.422Z,39.10
2023-09-15T14:21:09.327Z,39.20
2023-09-15T14:23:36.207Z,39.50
2023-09-15T14:26:03.718Z,39.30
2023-09-15T14:28:30.812Z,39.10
2023-09-15T14:31:02.209Z,38.70
2023-09-15T14:33:29.212Z,38.60
2023-09-15T14:35:56.320Z,38.90
2023-09-15T14:38:23.205Z,39.00
2023-09-15T14:40:50.060Z,39.10
2023-09-15T14:43:16.931Z,39.10
2023-09-15T14:45:43.934Z,39.30
2023-09-15T14:48:11.250Z,39.80
2023-09-15T14:50:39.268Z,39.80
2023-09-15T14:53:06.084Z,39.70
2023-09-15T14:55:32.931Z,40.00
2023-09-15T14:57:59.796Z,40.50
2023-09-15T15:00:26.713Z,40.90
2023-09-15T15:02:53.781Z,42.10
2023-09-15T15:05:20.826Z,42.40
2023-09-15T15:07:47.723Z,42.70
2023-09-15T15:10:14.620Z,42.70
2023-09-15T15:12:41.560Z,42.50
2023-09-15T15:15:13.588Z,42.70
2023-09-15T15:17:40.512Z,43.20
2023-09-15T15:20:08.452Z,43.10
2023-09-15T15:22:35.380Z,43.30
2023-09-15T15:25:02.441Z,43.50
2023-09-15T15:27:29.340Z,43.40
2023-09-15T15:29:59.277Z,43.40
2023-09-15T15:32:26.396Z,43.80
2023-09-15T15:34:54.274Z,44.30
2023-09-15T15:37:23.272Z,44.40
2023-09-15T15:39:51.195Z,44.30
2023-09-15T15:42:18.166Z,44.80
2023-09-15T15:44:46.077Z,45.30
2023-09-15T15:47:13.027Z,46.10
2023-09-15T15:49:39.854Z,47.50
2023-09-15T15:52:06.742Z,48.00
2023-09-15T15:54:33.689Z,48.30
2023-09-15T15:57:00.569Z,49.30
2023-09-15T15:59:27.407Z,49.60
2023-09-15T16:01:54.374Z,49.90
2023-09-15T16:04:21.235Z,50.00
2023-09-15T16:06:48.124Z,50.40
2023-09-15T16:09:15.670Z,50.40
2023-09-15T16:11:42.666Z,50.70
2023-09-15T16:14:09.626Z,51.20
2023-09-15T16:16:36.523Z,51.40
2023-09-15T16:19:03.525Z,51.50
2023-09-15T16:21:34.974Z,51.90
2023-09-15T16:24:02.453Z,52.00
2023-09-15T16:26:29.419Z,52.10
2023-09-15T16:28:56.314Z,52.30
2023-09-15T16:31:23.230Z,53.00
2023-09-15T16:33:50.101Z,53.50
2023-09-15T16:36:17.374Z,53.70
2023-09-15T16:38:44.325Z,54.30
2023-09-15T16:41:11.180Z,54.70
2023-09-15T16:43:38.011Z,54.90
2023-09-15T16:46:05.011Z,55.30
2023-09-15T16:48:32.023Z,55.60
2023-09-15T16:50:59.059Z,55.80
2023-09-15T16:53:26.502Z,56.00
2023-09-15T16:55:53.321Z,56.00
2023-09-15T16:58:20.180Z,56.10
2023-09-15T17:00:47.180Z,56.40
2023-09-15T17:03:14.409Z,56.50
2023-09-15T17:05:41.470Z,56.60
2023-09-15T17:08:08.374Z,56.70
2023-09-15T17:10:36.013Z,57.00
2023-09-15T17:13:03.577Z,57.20
2023-09-15T17:15:33.603Z,57.20
2023-09-15T17:18:01.416Z,57.20
2023-09-15T17:20:28.614Z,57.30
2023-09-15T17:22:55.537Z,57.30
2023-09-15T17:25:22.476Z,57.30
2023-09-15T17:27:49.530Z,57.50
2023-09-15T17:30:17.176Z,57.80
2023-09-15T17:32:44.242Z,57.70
2023-09-15T17:35:11.157Z,57.90
2023-09-15T17:37:38.560Z,57.90
2023-09-15T17:40:12.013Z,58.00
2023-09-15T17:42:41.278Z,58.00
2023-09-15T17:45:08.551Z,58.10
2023-09-15T17:47:37.923Z,58.20
2023-09-15T17:50:08.958Z,58.30
2023-09-15T17:52:40.720Z,58.40
2023-09-15T17:55:08.391Z,58.60
2023-09-15T17:57:35.353Z,58.70
2023-09-15T18:00:02.253Z,58.90
2023-09-15T18:02:37.121Z,59.10
2023-09-15T18:05:04.811Z,59.50
2023-09-15T18:07:34.640Z,59.70
2023-09-15T18:10:02.950Z,60.00
2023-09-15T18:12:29.919Z,60.20
2023-09-15T18:14:56.888Z,60.50
2023-09-15T18:17:23.737Z,60.80
2023-09-15T18:19:50.571Z,61.10
2023-09-15T18:22:20.114Z,61.30
2023-09-15T18:24:48.797Z,61.50
2023-09-15T18:27:15.737Z,61.90
2023-09-15T18:29:42.590Z,62.20
2023-09-15T18:32:09.431Z,62.50
2023-09-15T18:34:36.300Z,62.80
2023-09-15T18:37:05.624Z,63.00
2023-09-15T18:39:33.852Z,63.30
2023-09-15T18:42:01.276Z,63.40
2023-09-15T18:44:28.285Z,63.50
2023-09-15T18:46:55.165Z,63.70
2023-09-15T18:49:22.045Z,63.80
2023-09-15T18:51:49.756Z,63.90
2023-09-15T18:54:16.882Z,64.20
2023-09-15T18:56:45.930Z,64.30
2023-09-15T18:59:13.102Z,64.30
2023-09-15T19:01:40.036Z,64.70
2023-09-15T19:04:06.964Z,64.90
2023-09-15T19:06:34.516Z,65.10
2023-09-15T19:09:01.938Z,65.30
2023-09-15T19:11:29.065Z,65.40
2023-09-15T19:13:56.016Z,65.50
2023-09-15T19:16:23.618Z,65.60
2023-09-15T19:18:51.728Z,65.70
2023-09-15T19:21:20.663Z,66.00
2023-09-15T19:23:48.647Z,66.10
2023-09-15T19:26:15.692Z,66.20
2023-09-15T19:28:43.598Z,66.40
2023-09-15T19:31:10.591Z,66.50
2023-09-15T19:33:37.642Z,66.70
2023-09-15T19:36:05.609Z,66.80
2023-09-15T19:38:32.489Z,67.40
2023-09-15T19:40:59.356Z,67.40
2023-09-15T19:43:26.414Z,67.50
2023-09-15T19:45:53.384Z,67.70
2023-09-15T19:48:20.431Z,67.80
2023-09-15T19:50:47.515Z,67.90
2023-09-15T19:53:14.426Z,68.00
2023-09-15T19:55:45.125Z,68.20
2023-09-15T19:58:13.802Z,68.30
2023-09-15T20:00:40.950Z,68.50
2023-09-15T20:03:10.762Z,68.70
2023-09-15T20:05:42.061Z,68.80
2023-09-15T20:08:09.100Z,69.70
2023-09-15T20:10:36.110Z,69.30
2023-09-15T20:13:03.259Z,69.20
2023-09-15T20:15:30.392Z,69.20
2023-09-15T20:17:59.448Z,69.20
2023-09-15T20:20:26.707Z,69.30
2023-09-15T20:22:53.902Z,69.40
2023-09-15T20:25:22.621Z,69.40
2023-09-15T20:27:49.618Z,69.50
2023-09-15T20:30:17.304Z,69.60
2023-09-15T20:32:44.283Z,69.70
2023-09-15T20:35:11.377Z,69.90
2023-09-15T20:37:38.258Z,70.00
2023-09-15T20:40:05.699Z,70.10
2023-09-15T20:42:32.534Z,70.00
2023-09-15T20:44:59.742Z,70.20
2023-09-15T20:47:26.934Z,70.20
2023-09-15T20:49:54.071Z,70.20
2023-09-15T20:52:21.045Z,70.30
2023-09-15T20:54:49.154Z,70.50
2023-09-15T20:57:16.224Z,70.50
2023-09-15T20:59:43.123Z,70.60
2023-09-15T21:02:10.096Z,70.60
2023-09-15T21:04:37.118Z,70.70
2023-09-15T21:07:04.331Z,70.80
2023-09-15T21:09:31.268Z,70.80
2023-09-15T21:11:58.198Z,70.80
2023-09-15T21:14:25.116Z,71.00
2023-09-15T21:16:52.134Z,71.00
2023-09-15T21:19:19.665Z,71.10
2023-09-15T21:21:46.767Z,71.10
2023-09-15T21:24:13.929Z,71.20
2023-09-15T21:26:40.957Z,71.30
2023-09-15T21:29:07.963Z,71.40
2023-09-15T21:31:35.226Z,71.50
2023-09-15T21:34:02.123Z,71.90
2023-09-15T21:36:29.342Z,71.70
2023-09-15T21:38:57.013Z,71.90
2023-09-15T21:41:25.324Z,71.90
2023-09-15T21:43:52.236Z,72.00
2023-09-15T21:46:19.582Z,72.00
2023-09-15T21:48:46.866Z,72.00
2023-09-15T21:51:14.414Z,72.10
2023-09-15T21:53:42.236Z,72.30
2023-09-15T21:56:10.111Z,72.30
2023-09-15T21:58:37.221Z,72.30
2023-09-15T22:01:05.246Z,72.40
2023-09-15T22:03:32.383Z,72.50
2023-09-15T22:06:01.261Z,73.40
2023-09-15T22:08:28.195Z,72.60
2023-09-15T22:10:55.476Z,72.60
2023-09-15T22:13:22.597Z,72.90
2023-09-15T22:15:49.680Z,73.00
2023-09-15T22:18:16.704Z,72.90
2023-09-15T22:20:43.964Z,73.10
2023-09-15T22:23:12.671Z,73.00
2023-09-15T22:25:40.181Z,73.10
2023-09-15T22:28:07.704Z,73.00
2023-09-15T22:30:34.901Z,73.00
2023-09-15T22:33:03.805Z,73.10
2023-09-15T22:35:31.657Z,73.10
2023-09-15T22:38:01.561Z,73.20
2023-09-15T22:40:29.030Z,73.20
2023-09-15T22:42:56.223Z,73.20
2023-09-15T22:45:24.176Z,73.30
2023-09-15T22:47:59.275Z,73.30
2023-09-15T22:50:26.718Z,73.50
2023-09-15T22:52:54.353Z,73.60
2023-09-15T22:55:22.277Z,73.70
2023-09-15T22:57:49.747Z,73.70
2023-09-15T23:00:18.127Z,73.80
2023-09-15T23:02:48.851Z,73.70
2023-09-15T23:05:16.435Z,73.90
2023-09-15T23:07:43.838Z,74.00
2023-09-15T23:10:11.314Z,73.90
2023-09-15T23:12:39.197Z,73.90
2023-09-15T23:15:07.313Z,74.00
2023-09-15T23:17:34.394Z,74.00
2023-09-15T23:20:01.602Z,74.10
2023-09-15T23:22:28.568Z,74.10
2023-09-15T23:24:56.938Z,74.10
2023-09-15T23:27:23.904Z,74.10
2023-09-15T23:29:52.424Z,74.30
2023-09-15T23:32:19.473Z,74.30
2023-09-15T23:34:46.450Z,74.30
2023-09-15T23:37:13.272Z,74.40
2023-09-15T23:39:40.548Z,74.40
2023-09-15T23:42:08.064Z,74.50
2023-09-15T23:44:36.297Z,74.60
2023-09-15T23:47:03.405Z,74.50
2023-09-15T23:49:30.532Z,74.40
2023-09-15T23:51:57.521Z,74.40
2023-09-15T23:54:24.816Z,74.40
2023-09-15T23:56:51.773Z,74.30
2023-09-15T23:59:19.262Z,74.30
